createdAt,value
2019-01-04T00:01:11.103Z,3.17
2019-01-04T00:03:39.121Z,3.90
2019-01-04T00:06:06.946Z,4.33
2019-01-04T00:08:34.771Z,3.20
2019-01-04T00:11:02.599Z,3.77
2019-01-04T00:13:32.800Z,4.00
2019-01-04T00:16:00.783Z,3.53
2019-01-04T00:18:28.604Z,4.00
2019-01-04T00:20:56.408Z,3.80
2019-01-04T00:23:24.229Z,6.33
2019-01-04T00:25:52.018Z,3.83
2019-01-04T00:28:21.234Z,6.93
2019-01-04T00:30:49.111Z,5.33
2019-01-04T00:33:17.052Z,4.63
2019-01-04T00:35:44.945Z,6.63
2019-01-04T00:38:12.719Z,4.03
2019-01-04T00:40:40.531Z,4.23
2019-01-04T00:43:08.432Z,3.33
2019-01-04T00:45:36.291Z,3.80
2019-01-04T00:48:04.087Z,2.90
2019-01-04T00:50:31.984Z,3.87
2019-01-04T00:52:59.838Z,4.47
2019-01-04T00:55:49.699Z,4.93
2019-01-04T00:58:36.723Z,6.33
2019-01-04T01:01:22.763Z,4.53
2019-01-04T01:04:08.387Z,4.80
2019-01-04T01:07:13.545Z,8.33
2019-01-04T01:09:59.299Z,3.17
2019-01-04T01:12:48.530Z,6.03
2019-01-04T01:15:25.535Z,8.27
2019-01-04T01:18:04.780Z,4.27
2019-01-04T01:21:06.856Z,6.97
2019-01-04T01:24:03.370Z,3.23
2019-01-04T01:26:37.720Z,3.23
2019-01-04T01:29:23.427Z,3.03
2019-01-04T01:32:19.481Z,4.87
2019-01-04T01:35:09.265Z,4.83
2019-01-04T01:37:55.118Z,6.67
2019-01-04T01:40:40.888Z,7.10
2019-01-04T01:43:34.058Z,6.57
2019-01-04T01:46:20.334Z,4.13
2019-01-04T01:49:06.151Z,5.17
2019-01-04T01:51:48.088Z,4.27
2019-01-04T01:54:18.979Z,5.00
2019-01-04T01:56:46.857Z,8.93
2019-01-04T01:59:14.756Z,7.47
2019-01-04T02:01:42.752Z,10.53
2019-01-04T02:04:10.655Z,13.13
2019-01-04T02:06:38.539Z,11.87
2019-01-04T02:09:07.445Z,12.53
2019-01-04T02:11:35.612Z,11.83
2019-01-04T02:14:03.380Z,10.23
2019-01-04T02:16:31.237Z,11.53
2019-01-04T02:18:59.061Z,7.77
2019-01-04T02:21:26.931Z,9.20
2019-01-04T02:23:54.741Z,7.33
2019-01-04T02:26:22.643Z,9.30
2019-01-04T02:28:50.479Z,9.03
2019-01-04T02:31:18.296Z,7.83
2019-01-04T02:33:46.165Z,7.37
2019-01-04T02:36:13.966Z,10.57
2019-01-04T02:38:41.799Z,8.50
2019-01-04T02:41:09.802Z,6.73
2019-01-04T02:43:37.653Z,7.00
2019-01-04T02:46:05.456Z,7.27
2019-01-04T02:48:33.500Z,6.17
2019-01-04T02:51:01.302Z,4.87
2019-01-04T02:53:29.193Z,6.27
2019-01-04T02:55:56.980Z,5.50
2019-01-04T02:58:24.797Z,5.77
2019-01-04T03:00:52.632Z,7.13
2019-01-04T03:03:20.448Z,6.87
2019-01-04T03:05:48.274Z,8.43
2019-01-04T03:08:16.111Z,7.07
2019-01-04T03:10:43.902Z,6.70
2019-01-04T03:13:11.725Z,8.33
2019-01-04T03:15:39.542Z,8.87
2019-01-04T03:18:07.346Z,7.30
2019-01-04T03:20:35.207Z,6.73
2019-01-04T03:23:03.040Z,5.33
2019-01-04T03:25:30.891Z,5.00
2019-01-04T03:27:58.681Z,11.00
2019-01-04T03:30:26.559Z,5.80
2019-01-04T03:32:54.328Z,8.07
2019-01-04T03:35:22.164Z,7.57
2019-01-04T03:37:50.033Z,6.87
2019-01-04T03:40:17.845Z,6.50
2019-01-04T03:42:45.697Z,6.53
2019-01-04T03:45:13.576Z,8.80
2019-01-04T03:47:41.496Z,8.13
2019-01-04T03:50:09.311Z,5.67
2019-01-04T03:52:37.204Z,4.70
2019-01-04T03:55:05.066Z,4.23
2019-01-04T03:57:32.942Z,5.63
2019-01-04T04:00:00.853Z,4.90
2019-01-04T04:02:28.671Z,5.97
2019-01-04T04:04:56.752Z,6.13
2019-01-04T04:07:24.901Z,2.73
2019-01-04T04:09:52.693Z,4.73
2019-01-04T04:12:20.533Z,4.60
2019-01-04T04:14:48.396Z,4.17
2019-01-04T04:17:16.212Z,6.03
2019-01-04T04:19:44.001Z,6.10
2019-01-04T04:22:11.814Z,6.03
2019-01-04T04:24:39.594Z,6.37
2019-01-04T04:27:07.438Z,5.57
2019-01-04T04:29:35.310Z,5.70
2019-01-04T04:32:03.206Z,7.00
2019-01-04T04:34:31.096Z,3.90
2019-01-04T04:36:58.951Z,6.83
2019-01-04T04:39:26.827Z,3.23
2019-01-04T04:41:54.777Z,7.77
2019-01-04T04:44:22.659Z,10.33
2019-01-04T04:46:50.463Z,5.37
2019-01-04T04:49:18.248Z,5.53
2019-01-04T04:51:46.391Z,9.87
2019-01-04T04:54:14.213Z,5.80
2019-01-04T04:56:42.058Z,6.67
2019-01-04T04:59:10.001Z,6.10
2019-01-04T05:01:37.791Z,5.97
2019-01-04T05:04:05.650Z,2.80
2019-01-04T05:06:33.517Z,6.10
2019-01-04T05:09:01.355Z,5.33
2019-01-04T05:11:29.131Z,6.67
2019-01-04T05:13:56.920Z,6.43
2019-01-04T05:16:24.760Z,6.67
2019-01-04T05:18:52.552Z,6.00
2019-01-04T05:21:20.361Z,6.43
2019-01-04T05:23:48.183Z,7.03
2019-01-04T05:26:16.015Z,5.47
2019-01-04T05:28:43.799Z,8.70
2019-01-04T05:31:11.622Z,7.20
2019-01-04T05:33:39.433Z,6.40
2019-01-04T05:36:07.215Z,6.60
2019-01-04T05:38:35.066Z,4.77
2019-01-04T05:41:02.927Z,6.43
2019-01-04T05:43:30.719Z,5.03
2019-01-04T05:45:58.756Z,3.87
2019-01-04T05:48:26.558Z,8.67
2019-01-04T05:50:54.384Z,4.57
2019-01-04T05:53:22.175Z,5.67
2019-01-04T05:55:49.946Z,6.93
2019-01-04T05:58:17.870Z,7.10
2019-01-04T06:00:45.697Z,8.17
2019-01-04T06:03:13.641Z,5.70
2019-01-04T06:05:41.457Z,6.87
2019-01-04T06:08:09.340Z,4.47
2019-01-04T06:10:37.191Z,7.43
2019-01-04T06:13:04.960Z,4.20
2019-01-04T06:15:32.768Z,7.27
2019-01-04T06:18:00.554Z,9.13
2019-01-04T06:20:28.435Z,7.67
2019-01-04T06:22:56.448Z,7.87
2019-01-04T06:25:24.283Z,9.83
2019-01-04T06:27:52.243Z,8.57
2019-01-04T06:30:20.075Z,11.27
2019-01-04T06:32:47.880Z,11.83
2019-01-04T06:35:15.680Z,9.70
2019-01-04T06:37:43.578Z,11.90
2019-01-04T06:40:11.480Z,10.33
2019-01-04T06:42:39.279Z,10.63
2019-01-04T06:45:07.586Z,12.87
2019-01-04T06:47:35.990Z,11.37
2019-01-04T06:50:03.842Z,12.60
2019-01-04T06:52:31.751Z,10.43
2019-01-04T06:55:17.207Z,14.70
2019-01-04T06:57:45.024Z,10.33
2019-01-04T07:00:12.834Z,13.63
2019-01-04T07:02:40.640Z,9.73
2019-01-04T07:05:08.522Z,10.57
2019-01-04T07:07:36.375Z,9.83
2019-01-04T07:10:04.201Z,14.80
2019-01-04T07:12:32.094Z,8.47
2019-01-04T07:14:59.966Z,14.67
2019-01-04T07:17:27.868Z,9.20
2019-01-04T07:19:55.708Z,12.23
2019-01-04T07:22:23.560Z,11.73
2019-01-04T07:24:51.357Z,10.27
2019-01-04T07:27:19.257Z,10.63
2019-01-04T07:29:47.183Z,8.83
2019-01-04T07:32:15.047Z,10.67
2019-01-04T07:34:42.960Z,13.50
2019-01-04T07:37:11.171Z,15.37
2019-01-04T07:39:38.987Z,16.13
2019-01-04T07:42:06.891Z,12.63
2019-01-04T07:44:34.782Z,12.57
2019-01-04T07:47:02.582Z,12.33
2019-01-04T07:49:30.394Z,12.77
2019-01-04T07:51:58.211Z,14.23
2019-01-04T07:54:26.017Z,14.93
2019-01-04T07:56:53.988Z,19.30
2019-01-04T07:59:21.813Z,16.53
2019-01-04T08:01:49.631Z,17.53
2019-01-04T08:04:17.483Z,17.33
2019-01-04T08:06:45.357Z,16.83
2019-01-04T08:09:13.275Z,20.53
2019-01-04T08:11:41.118Z,18.97
2019-01-04T08:14:08.936Z,16.30
2019-01-04T08:16:36.770Z,16.13
2019-01-04T08:19:04.575Z,14.43
2019-01-04T08:21:32.402Z,16.63
2019-01-04T08:24:00.246Z,16.70
2019-01-04T08:26:28.031Z,15.43
2019-01-04T08:28:55.813Z,11.90
2019-01-04T08:31:23.770Z,13.63
2019-01-04T08:33:51.586Z,12.07
2019-01-04T08:36:19.358Z,10.93
2019-01-04T08:38:47.198Z,14.13
2019-01-04T08:41:14.998Z,13.37
2019-01-04T08:43:42.834Z,12.63
2019-01-04T08:46:10.819Z,11.83
2019-01-04T08:48:38.755Z,14.97
2019-01-04T08:51:06.605Z,12.47
2019-01-04T08:53:52.367Z,11.07
2019-01-04T08:56:20.202Z,14.27
2019-01-04T08:58:48.124Z,14.43
2019-01-04T09:01:15.990Z,15.13
2019-01-04T09:03:43.926Z,15.17
2019-01-04T09:06:11.769Z,15.77
2019-01-04T09:08:39.663Z,17.07
2019-01-04T09:11:07.522Z,17.50
2019-01-04T09:13:35.500Z,15.97
2019-01-04T09:16:03.386Z,15.40
2019-01-04T09:18:31.293Z,19.10
2019-01-04T09:20:59.168Z,16.67
2019-01-04T09:23:27.340Z,16.37
2019-01-04T09:25:55.167Z,15.47
2019-01-04T09:28:23.025Z,16.57
2019-01-04T09:30:50.900Z,20.20
2019-01-04T09:33:18.693Z,19.60
2019-01-04T09:35:46.804Z,20.30
2019-01-04T09:38:14.706Z,18.00
2019-01-04T09:40:42.553Z,15.17
2019-01-04T09:43:10.466Z,19.37
2019-01-04T09:45:38.321Z,19.83
2019-01-04T09:48:06.282Z,17.10
2019-01-04T09:50:34.278Z,16.27
2019-01-04T09:53:02.094Z,12.37
2019-01-04T09:55:29.933Z,17.90
2019-01-04T09:57:58.127Z,16.13
2019-01-04T10:00:26.567Z,12.93
2019-01-04T10:02:54.697Z,15.07
2019-01-04T10:05:22.681Z,16.67
2019-01-04T10:07:50.642Z,15.00
2019-01-04T10:10:18.520Z,15.17
2019-01-04T10:12:46.672Z,16.50
2019-01-04T10:15:15.652Z,17.93
2019-01-04T10:17:43.470Z,16.27
2019-01-04T10:20:11.363Z,15.50
2019-01-04T10:22:39.396Z,14.77
2019-01-04T10:25:07.336Z,17.07
2019-01-04T10:27:35.275Z,20.27
2019-01-04T10:30:03.152Z,13.10
2019-01-04T10:32:30.980Z,15.10
2019-01-04T10:34:59.094Z,15.97
2019-01-04T10:37:27.024Z,18.87
2019-01-04T10:39:55.802Z,15.53
2019-01-04T10:42:23.670Z,11.13
2019-01-04T10:44:51.661Z,17.33
2019-01-04T10:47:20.852Z,15.17
2019-01-04T10:49:48.955Z,17.00
2019-01-04T10:52:16.947Z,12.63
2019-01-04T10:54:44.784Z,16.30
2019-01-04T10:57:12.702Z,15.73
2019-01-04T10:59:40.589Z,16.60
2019-01-04T11:02:08.660Z,15.60
2019-01-04T11:04:36.955Z,15.00
2019-01-04T11:07:05.122Z,15.07
2019-01-04T11:09:33.288Z,17.17
2019-01-04T11:12:01.219Z,16.40
2019-01-04T11:14:29.098Z,23.63
2019-01-04T11:16:58.313Z,19.73
2019-01-04T11:19:26.297Z,19.70
2019-01-04T11:22:13.417Z,22.93
2019-01-04T11:25:09.899Z,19.23
2019-01-04T11:27:47.557Z,22.03
2019-01-04T11:30:46.905Z,22.60
2019-01-04T11:33:39.958Z,20.43
2019-01-04T11:36:14.147Z,18.70
2019-01-04T11:39:01.163Z,22.73
2019-01-04T11:41:40.472Z,19.63
2019-01-04T11:44:21.011Z,21.77
2019-01-04T11:47:19.965Z,21.13
2019-01-04T11:49:54.378Z,24.37
2019-01-04T11:52:30.970Z,23.13
2019-01-04T11:54:56.479Z,20.63
2019-01-04T11:57:24.465Z,22.20
2019-01-04T11:59:52.472Z,22.17
2019-01-04T12:02:26.214Z,18.10
2019-01-04T12:04:49.970Z,19.33
2019-01-04T12:07:17.950Z,18.10
2019-01-04T12:09:45.872Z,20.67
2019-01-04T12:12:14.563Z,14.57
2019-01-04T12:14:42.537Z,17.27
2019-01-04T12:17:10.575Z,21.97
2019-01-04T12:33:43.921Z,13.13
2019-01-04T12:36:11.802Z,15.90
2019-01-04T12:38:39.804Z,11.37
2019-01-04T12:41:07.686Z,11.67
2019-01-04T12:43:35.511Z,12.63
2019-01-04T12:46:03.584Z,15.40
2019-01-04T12:48:31.597Z,16.10
2019-01-04T12:50:59.491Z,16.80
2019-01-04T12:53:27.408Z,19.60
2019-01-04T12:55:55.263Z,14.77
2019-01-04T12:58:23.091Z,18.80
2019-01-04T13:00:50.988Z,16.37
2019-01-04T13:03:18.889Z,18.27
2019-01-04T13:05:46.709Z,21.33
2019-01-04T13:08:14.586Z,16.80
2019-01-04T13:10:42.448Z,17.90
2019-01-04T13:13:10.404Z,15.53
2019-01-04T13:15:38.224Z,19.27
2019-01-04T13:18:06.065Z,16.97
2019-01-04T13:20:34.020Z,15.90
2019-01-04T13:23:01.835Z,20.90
2019-01-04T13:25:29.709Z,16.17
2019-01-04T13:27:57.533Z,16.00
2019-01-04T13:30:25.341Z,16.10
2019-01-04T13:32:53.188Z,12.33
2019-01-04T13:35:21.159Z,17.70
2019-01-04T13:37:48.979Z,15.13
2019-01-04T13:40:16.836Z,16.67
2019-01-04T13:42:44.824Z,20.50
2019-01-04T13:45:12.686Z,20.23
2019-01-04T13:47:40.624Z,18.97
2019-01-04T13:50:18.154Z,16.33
2019-01-04T13:52:43.327Z,17.33
2019-01-04T13:55:11.326Z,16.17
2019-01-04T13:57:39.191Z,16.40
2019-01-04T14:00:11.470Z,17.33
2019-01-04T14:02:39.337Z,15.63
2019-01-04T14:05:07.233Z,11.77
2019-01-04T14:07:35.752Z,18.40
2019-01-04T14:10:03.543Z,18.87
2019-01-04T14:12:31.403Z,19.43
2019-01-04T14:14:59.367Z,17.57
2019-01-04T14:17:27.388Z,18.37
2019-01-04T14:19:55.372Z,13.87
2019-01-04T14:22:23.319Z,11.47
2019-01-04T14:24:51.174Z,14.20
2019-01-04T14:27:19.071Z,10.20
2019-01-04T14:29:47.079Z,8.53
2019-01-04T14:32:17.333Z,9.90
2019-01-04T14:34:45.200Z,6.70
2019-01-04T14:37:13.283Z,9.07
2019-01-04T14:39:41.217Z,9.80
2019-01-04T14:42:09.179Z,6.13
2019-01-04T14:44:37.113Z,8.17
2019-01-04T14:47:04.957Z,11.23
2019-01-04T14:49:32.822Z,13.47
2019-01-04T14:52:00.721Z,9.67
2019-01-04T14:54:28.872Z,11.67
2019-01-04T14:56:56.792Z,7.97
2019-01-04T14:59:24.606Z,11.17
2019-01-04T15:01:52.417Z,9.00
2019-01-04T15:04:23.080Z,10.23
2019-01-04T15:06:50.905Z,11.03
2019-01-04T15:09:18.793Z,12.03
2019-01-04T15:11:46.676Z,11.57
2019-01-04T15:14:14.499Z,14.00
2019-01-04T15:16:42.361Z,11.50
2019-01-04T15:19:10.224Z,9.93
2019-01-04T15:21:38.195Z,13.30
2019-01-04T15:24:06.163Z,11.63
2019-01-04T15:26:34.031Z,12.37
2019-01-04T15:29:01.955Z,10.97
2019-01-04T15:31:29.792Z,10.83
2019-01-04T15:33:57.707Z,12.07
2019-01-04T15:36:29.112Z,12.20
2019-01-04T15:38:57.399Z,11.70
2019-01-04T15:41:28.790Z,16.53
2019-01-04T15:44:26.307Z,11.87
2019-01-04T15:47:06.272Z,11.73
2019-01-04T15:49:34.160Z,11.97
2019-01-04T15:52:02.195Z,9.57
2019-01-04T15:54:32.759Z,14.27
2019-01-04T15:57:00.832Z,12.43
2019-01-04T15:59:28.716Z,12.00
2019-01-04T16:01:56.588Z,10.80
2019-01-04T16:04:24.408Z,9.40
2019-01-04T16:06:52.545Z,12.30
2019-01-04T16:09:20.459Z,13.13
2019-01-04T16:11:48.415Z,11.33
2019-01-04T16:14:16.252Z,10.83
2019-01-04T16:16:44.133Z,12.93
2019-01-04T16:19:12.291Z,12.10
2019-01-04T16:21:40.350Z,9.13
2019-01-04T16:24:08.277Z,9.10
2019-01-04T16:26:36.403Z,10.90
2019-01-04T16:29:04.851Z,7.73
2019-01-04T16:31:33.026Z,9.37
2019-01-04T16:34:01.150Z,8.10
2019-01-04T16:36:31.063Z,13.20
2019-01-04T16:39:06.477Z,8.50
2019-01-04T16:45:11.134Z,9.20
2019-01-04T16:47:39.492Z,8.90
2019-01-04T16:50:07.390Z,9.47
2019-01-04T16:52:35.346Z,8.87
2019-01-04T16:55:03.287Z,6.83
2019-01-04T16:57:31.222Z,14.10
2019-01-04T16:59:59.094Z,10.47
2019-01-04T17:02:27.026Z,11.67
2019-01-04T17:04:54.940Z,8.83
2019-01-04T17:07:22.904Z,8.93
2019-01-04T17:09:50.840Z,6.57
2019-01-04T17:12:18.672Z,17.17
2019-01-04T17:14:46.510Z,7.40
2019-01-04T17:17:14.496Z,11.10
2019-01-04T17:19:42.641Z,12.80
2019-01-04T17:22:10.527Z,16.53
2019-01-04T17:24:38.500Z,10.83
2019-01-04T17:27:06.480Z,12.17
2019-01-04T17:29:34.395Z,16.23
2019-01-04T17:32:02.233Z,11.33
2019-01-04T17:34:30.280Z,10.40
2019-01-04T17:36:58.346Z,9.77
2019-01-04T17:39:26.382Z,10.00
2019-01-04T17:41:54.425Z,17.07
2019-01-04T17:44:23.878Z,14.07
2019-01-04T17:46:52.043Z,9.07
2019-01-04T17:49:20.027Z,8.47
2019-01-04T17:51:48.035Z,7.83
2019-01-04T17:54:15.860Z,11.70
2019-01-04T17:56:43.697Z,7.33
2019-01-04T17:59:11.705Z,9.30
2019-01-04T18:01:39.658Z,8.73
2019-01-04T18:04:07.520Z,8.37
2019-01-04T18:06:35.371Z,11.03
2019-01-04T18:09:04.192Z,9.13
2019-01-04T18:11:32.055Z,12.50
2019-01-04T18:13:59.942Z,10.97
2019-01-04T18:16:27.893Z,7.80
2019-01-04T18:18:55.943Z,7.37
2019-01-04T18:21:24.036Z,10.93
2019-01-04T18:23:51.903Z,10.93
2019-01-04T18:26:24.309Z,8.23
2019-01-04T18:29:03.594Z,5.73
2019-01-04T18:31:32.765Z,10.17
2019-01-04T18:34:00.667Z,10.57
2019-01-04T18:36:28.525Z,9.47
2019-01-04T18:38:56.548Z,9.90
2019-01-04T18:41:24.496Z,10.20
2019-01-04T18:43:52.468Z,11.57
2019-01-04T18:46:23.016Z,7.97
2019-01-04T18:49:02.661Z,8.73
2019-01-04T18:51:32.378Z,8.70
2019-01-04T18:54:00.452Z,12.03
2019-01-04T18:56:28.441Z,9.73
2019-01-04T18:58:56.363Z,9.70
2019-01-04T19:01:24.304Z,15.23
2019-01-04T19:03:52.262Z,18.60
2019-01-04T19:06:20.092Z,12.30
2019-01-04T19:08:48.004Z,11.60
2019-01-04T19:11:15.846Z,12.40
2019-01-04T19:13:43.739Z,12.50
2019-01-04T19:16:11.738Z,9.50
2019-01-04T19:18:39.700Z,14.40
2019-01-04T19:21:07.580Z,12.30
2019-01-04T19:23:39.553Z,16.93
2019-01-04T19:26:05.287Z,12.93
2019-01-04T19:28:33.208Z,14.47
2019-01-04T19:31:01.117Z,13.63
2019-01-04T19:33:29.124Z,11.57
2019-01-04T19:35:56.992Z,15.83
2019-01-04T19:38:25.027Z,15.53
2019-01-04T19:40:52.928Z,14.97
2019-01-04T19:43:20.855Z,11.33
2019-01-04T19:45:48.853Z,17.97
2019-01-04T19:48:16.724Z,11.23
2019-01-04T19:50:44.646Z,13.93
2019-01-04T19:53:12.505Z,13.97
2019-01-04T19:56:03.366Z,16.23
2019-01-04T19:58:22.886Z,10.03
2019-01-04T20:00:52.400Z,11.63
2019-01-04T20:03:20.331Z,16.37
2019-01-04T20:09:49.487Z,12.73
2019-01-04T20:12:56.443Z,9.73
2019-01-04T20:16:10.547Z,10.97
2019-01-04T20:19:16.025Z,16.07
2019-01-04T20:22:01.773Z,12.53
2019-01-04T20:24:48.736Z,12.60
2019-01-04T20:27:35.868Z,9.20
2019-01-04T20:30:28.555Z,10.37
2019-01-04T20:33:30.511Z,12.90
2019-01-04T20:36:20.406Z,16.57
2019-01-04T20:39:06.361Z,9.37
2019-01-04T20:42:02.827Z,16.17
2019-01-04T20:45:04.901Z,11.57
2019-01-04T20:47:51.893Z,15.20
2019-01-04T20:50:37.280Z,11.13
2019-01-04T20:53:39.730Z,10.80
2019-01-04T20:56:26.608Z,10.37
2019-01-04T20:59:12.364Z,12.43
2019-01-04T21:02:02.372Z,18.07
2019-01-04T21:05:04.616Z,12.57
2019-01-04T21:07:49.406Z,10.17
2019-01-04T21:10:55.956Z,9.40
2019-01-04T21:13:43.217Z,10.70
2019-01-04T21:16:28.801Z,10.90
2019-01-04T21:19:21.946Z,7.67
2019-01-04T21:22:08.993Z,13.17
2019-01-04T21:24:55.107Z,7.60
2019-01-04T21:27:43.000Z,8.23
2019-01-04T21:30:41.928Z,7.97
2019-01-04T21:33:28.248Z,6.77
2019-01-04T21:36:24.108Z,8.60
2019-01-04T21:39:14.118Z,10.07
2019-01-04T21:42:06.649Z,7.43
2019-01-04T21:44:52.200Z,6.37
2019-01-04T21:47:54.006Z,8.97
2019-01-04T21:50:43.964Z,10.03
2019-01-04T21:53:29.368Z,7.90
2019-01-04T21:56:22.326Z,10.07
2019-01-04T21:59:09.219Z,10.00
2019-01-04T22:02:11.552Z,11.60
2019-01-04T22:04:57.241Z,17.10
2019-01-04T22:07:56.479Z,7.47
2019-01-04T22:10:52.804Z,11.00
2019-01-04T22:13:35.380Z,9.57
2019-01-04T22:16:39.256Z,7.20
2019-01-04T22:19:37.335Z,7.77
2019-01-04T22:22:42.232Z,7.07
2019-01-04T22:25:35.391Z,11.40
2019-01-04T22:28:25.136Z,7.50
2019-01-04T22:31:10.712Z,10.17
2019-01-04T22:34:00.938Z,11.77
2019-01-04T22:36:58.303Z,5.93
2019-01-04T22:40:00.204Z,6.30
2019-01-04T22:43:02.379Z,9.80
2019-01-04T22:45:58.542Z,5.33
2019-01-04T22:48:43.954Z,8.07
2019-01-04T22:51:48.848Z,7.83
2019-01-04T22:54:38.821Z,5.97
2019-01-04T22:57:40.995Z,4.23
2019-01-04T23:00:30.415Z,5.83
2019-01-04T23:03:32.529Z,6.17
2019-01-04T23:06:34.377Z,4.70
2019-01-04T23:09:16.125Z,6.13
2019-01-04T23:12:03.484Z,8.27
2019-01-04T23:14:49.245Z,7.37
2019-01-04T23:17:41.854Z,8.17
2019-01-04T23:20:32.766Z,10.53
2019-01-04T23:23:29.018Z,7.67
2019-01-04T23:26:30.960Z,9.50
2019-01-04T23:29:17.895Z,10.73
2019-01-04T23:32:07.746Z,9.70
2019-01-04T23:34:57.604Z,12.87
2019-01-04T23:38:03.124Z,15.67
2019-01-04T23:40:50.266Z,10.80
2019-01-04T23:43:39.662Z,6.00
2019-01-04T23:46:35.456Z,7.00
2019-01-04T23:49:19.977Z,8.37
2019-01-04T23:52:19.787Z,5.37
2019-01-04T23:55:09.391Z,8.23
2019-01-04T23:57:56.409Z,11.10
